createdAt,value
2017-12-08T00:00:18.967Z,8.13
2017-12-08T00:02:46.534Z,7.30
2017-12-08T00:05:14.148Z,7.50
2017-12-08T00:07:42.513Z,7.90
2017-12-08T00:10:11.040Z,7.40
2017-12-08T00:12:38.668Z,8.00
2017-12-08T00:15:07.032Z,8.10
2017-12-08T00:17:34.772Z,8.50
2017-12-08T00:20:02.455Z,8.83
2017-12-08T00:22:30.877Z,8.40
2017-12-08T00:24:58.591Z,8.40
2017-12-08T00:27:26.192Z,8.90
2017-12-08T00:29:53.883Z,9.23
2017-12-08T00:32:21.489Z,8.60
2017-12-08T00:34:49.061Z,8.50
2017-12-08T00:37:18.141Z,8.23
2017-12-08T00:39:45.736Z,9.53
2017-12-08T00:42:14.129Z,8.90
2017-12-08T00:44:41.701Z,6.80
2017-12-08T00:47:09.297Z,8.20
2017-12-08T00:49:37.028Z,9.00
2017-12-08T00:52:04.622Z,8.93
2017-12-08T00:54:32.249Z,9.03
2017-12-08T00:56:59.824Z,11.47
2017-12-08T00:59:27.472Z,9.60
2017-12-08T01:01:55.056Z,9.33
2017-12-08T01:04:22.731Z,8.53
2017-12-08T01:06:50.285Z,9.10
2017-12-08T01:09:17.924Z,8.20
2017-12-08T01:11:46.294Z,7.53
2017-12-08T01:14:13.896Z,8.03
2017-12-08T01:16:41.510Z,7.20
2017-12-08T01:19:09.110Z,7.93
2017-12-08T01:21:36.670Z,7.93
2017-12-08T01:24:04.288Z,8.10
2017-12-08T01:26:31.924Z,8.13
2017-12-08T01:29:00.270Z,6.87
2017-12-08T01:31:27.868Z,7.30
2017-12-08T01:33:56.185Z,7.83
2017-12-08T01:36:23.781Z,7.90
2017-12-08T01:38:51.366Z,8.23
2017-12-08T01:41:19.704Z,9.00
2017-12-08T01:43:48.133Z,8.67
2017-12-08T01:46:16.502Z,8.20
2017-12-08T01:48:44.851Z,9.07
2017-12-08T01:51:13.268Z,8.10
2017-12-08T01:53:41.620Z,8.60
2017-12-08T01:56:09.191Z,8.00
2017-12-08T01:58:36.813Z,8.13
2017-12-08T02:01:04.402Z,9.13
2017-12-08T02:03:31.973Z,9.23
2017-12-08T02:05:59.539Z,8.33
2017-12-08T02:08:27.128Z,8.87
2017-12-08T02:10:54.717Z,7.90
2017-12-08T02:13:22.313Z,8.90
2017-12-08T02:15:49.899Z,8.73
2017-12-08T02:18:18.263Z,8.10
2017-12-08T02:20:45.802Z,7.57
2017-12-08T02:23:13.390Z,9.63
2017-12-08T02:25:41.033Z,6.60
2017-12-08T02:28:08.569Z,7.57
2017-12-08T02:30:36.172Z,6.53
2017-12-08T02:33:03.702Z,7.60
2017-12-08T02:35:31.292Z,7.40
2017-12-08T02:37:59.629Z,6.30
2017-12-08T02:40:27.202Z,7.80
2017-12-08T02:42:54.789Z,6.40
2017-12-08T02:45:22.386Z,6.70
2017-12-08T02:47:49.949Z,7.33
2017-12-08T02:50:17.524Z,7.10
2017-12-08T02:52:45.878Z,7.03
2017-12-08T02:55:13.442Z,7.63
2017-12-08T02:57:41.031Z,7.53
2017-12-08T03:00:08.593Z,7.57
2017-12-08T03:02:36.184Z,8.37
2017-12-08T03:05:03.797Z,7.37
2017-12-08T03:07:31.383Z,8.77
2017-12-08T03:09:58.958Z,8.50
2017-12-08T03:12:26.535Z,9.13
2017-12-08T03:14:54.129Z,9.53
2017-12-08T03:17:21.880Z,8.80
2017-12-08T03:19:50.205Z,8.40
2017-12-08T03:22:17.778Z,10.30
2017-12-08T03:24:45.358Z,9.10
2017-12-08T03:27:12.939Z,7.70
2017-12-08T03:29:41.311Z,7.30
2017-12-08T03:32:09.653Z,9.47
2017-12-08T03:34:37.247Z,8.70
2017-12-08T03:37:04.813Z,7.80
2017-12-08T03:39:33.183Z,6.53
2017-12-08T03:42:00.751Z,8.13
2017-12-08T03:44:28.356Z,6.20
2017-12-08T03:46:55.935Z,6.37
2017-12-08T03:49:23.489Z,6.33
2017-12-08T03:51:51.068Z,5.47
2017-12-08T03:54:18.626Z,6.43
2017-12-08T03:56:46.231Z,5.17
2017-12-08T03:59:14.553Z,6.40
2017-12-08T04:01:42.129Z,8.23
2017-12-08T04:04:09.708Z,6.03
2017-12-08T04:06:37.284Z,4.70
2017-12-08T04:09:05.634Z,4.37
2017-12-08T04:11:33.189Z,6.10
2017-12-08T04:14:00.771Z,6.80
2017-12-08T04:16:28.337Z,6.37
2017-12-08T04:18:56.693Z,6.30
2017-12-08T04:21:24.298Z,5.17
2017-12-08T04:23:51.865Z,5.83
2017-12-08T04:26:19.425Z,4.83
2017-12-08T04:28:47.002Z,4.97
2017-12-08T04:31:14.557Z,5.50
2017-12-08T04:33:42.176Z,5.03
2017-12-08T04:36:10.825Z,3.90
2017-12-08T04:38:38.404Z,4.70
2017-12-08T04:41:05.961Z,5.10
2017-12-08T04:43:35.187Z,5.20
2017-12-08T04:46:02.812Z,4.83
2017-12-08T04:48:30.402Z,4.83
2017-12-08T04:50:57.995Z,3.60
2017-12-08T04:53:25.613Z,5.00
2017-12-08T04:55:53.202Z,5.53
2017-12-08T04:58:22.357Z,3.87
2017-12-08T05:00:49.946Z,5.30
2017-12-08T05:03:17.612Z,5.20
2017-12-08T05:05:45.236Z,5.63
2017-12-08T05:08:12.821Z,5.13
2017-12-08T05:10:40.401Z,5.87
2017-12-08T05:13:08.741Z,5.83
2017-12-08T05:15:36.334Z,5.57
2017-12-08T05:18:03.903Z,5.90
2017-12-08T05:20:32.260Z,5.17
2017-12-08T05:22:59.836Z,6.60
2017-12-08T05:25:27.388Z,5.40
2017-12-08T05:27:55.064Z,3.07
2017-12-08T05:30:22.626Z,4.73
2017-12-08T05:32:50.978Z,4.47
2017-12-08T05:35:19.312Z,3.63
2017-12-08T05:37:47.030Z,3.60
2017-12-08T05:40:14.592Z,4.50
2017-12-08T05:42:42.171Z,3.90
2017-12-08T05:45:10.505Z,3.80
2017-12-08T05:47:38.101Z,3.67
2017-12-08T05:50:05.700Z,4.37
2017-12-08T05:52:33.309Z,4.77
2017-12-08T05:55:00.890Z,4.50
2017-12-08T05:57:29.237Z,4.40
2017-12-08T05:59:56.800Z,3.90
2017-12-08T06:02:24.365Z,4.60
2017-12-08T06:04:51.949Z,7.33
2017-12-08T06:07:19.586Z,6.30
2017-12-08T06:09:47.200Z,4.10
2017-12-08T06:12:14.749Z,6.23
2017-12-08T06:14:43.119Z,4.70
2017-12-08T06:17:11.453Z,5.50
2017-12-08T06:19:39.792Z,5.90
2017-12-08T06:22:08.175Z,5.20
2017-12-08T06:24:35.789Z,4.73
2017-12-08T06:27:03.370Z,3.90
2017-12-08T06:29:30.938Z,4.63
2017-12-08T06:31:59.289Z,4.50
2017-12-08T06:34:26.852Z,4.17
2017-12-08T06:36:54.451Z,4.37
2017-12-08T06:39:22.008Z,4.20
2017-12-08T06:41:50.349Z,4.60
2017-12-08T06:44:17.953Z,4.50
2017-12-08T06:46:46.275Z,2.50
2017-12-08T06:49:13.850Z,4.43
2017-12-08T06:51:41.413Z,4.00
2017-12-08T06:54:09.015Z,3.87
2017-12-08T06:56:37.346Z,4.77
2017-12-08T06:59:04.921Z,3.60
2017-12-08T07:01:32.469Z,4.00
2017-12-08T07:04:00.049Z,4.10
2017-12-08T07:06:27.621Z,4.33
2017-12-08T07:08:56.198Z,3.80
2017-12-08T07:11:23.779Z,4.30
2017-12-08T07:13:52.137Z,3.10
2017-12-08T07:16:19.711Z,4.60
2017-12-08T07:18:48.046Z,4.20
2017-12-08T07:21:15.887Z,3.63
2017-12-08T07:23:43.445Z,3.37
2017-12-08T07:26:11.006Z,3.23
2017-12-08T07:28:38.586Z,2.50
2017-12-08T07:31:06.154Z,2.83
2017-12-08T07:33:33.737Z,3.30
2017-12-08T07:36:02.534Z,3.23
2017-12-08T07:38:31.978Z,2.90
2017-12-08T07:40:59.537Z,2.90
2017-12-08T07:43:27.118Z,3.90
2017-12-08T07:45:55.453Z,3.10
2017-12-08T07:48:23.800Z,3.40
2017-12-08T07:50:51.368Z,5.00
2017-12-08T07:53:18.974Z,4.77
2017-12-08T07:55:46.558Z,4.03
2017-12-08T07:58:14.225Z,4.90
2017-12-08T08:00:41.790Z,4.97
2017-12-08T08:03:09.343Z,4.87
2017-12-08T08:05:36.971Z,4.07
2017-12-08T08:08:05.306Z,3.30
2017-12-08T08:10:32.889Z,3.57
2017-12-08T08:13:00.445Z,3.80
2017-12-08T08:15:28.034Z,3.60
2017-12-08T08:17:55.593Z,3.80
2017-12-08T08:20:23.923Z,3.40
2017-12-08T08:22:51.506Z,4.13
2017-12-08T08:25:19.076Z,4.00
2017-12-08T08:27:47.422Z,3.83
2017-12-08T08:30:15.060Z,4.07
2017-12-08T08:32:42.649Z,4.37
2017-12-08T08:35:10.266Z,4.50
2017-12-08T08:37:37.833Z,4.17
2017-12-08T08:40:05.409Z,3.60
2017-12-08T08:42:33.010Z,3.87
2017-12-08T08:45:00.578Z,2.97
2017-12-08T08:47:28.170Z,3.90
2017-12-08T08:49:55.725Z,2.80
2017-12-08T08:52:23.310Z,2.83
2017-12-08T08:54:50.884Z,3.40
2017-12-08T08:57:18.448Z,2.63
2017-12-08T08:59:46.036Z,1.87
2017-12-08T09:02:13.575Z,2.20
2017-12-08T09:04:41.157Z,2.37
2017-12-08T09:07:10.035Z,2.17
2017-12-08T09:09:37.593Z,2.03
2017-12-08T09:12:05.186Z,2.23
2017-12-08T09:14:33.535Z,1.90
2017-12-08T09:17:01.100Z,2.43
2017-12-08T09:19:28.693Z,1.63
2017-12-08T09:21:57.004Z,2.10
2017-12-08T09:24:25.368Z,1.83
2017-12-08T09:26:52.925Z,1.80
2017-12-08T09:29:21.421Z,2.50
2017-12-08T09:31:49.013Z,2.27
2017-12-08T09:34:16.583Z,1.60
2017-12-08T09:36:44.818Z,2.43
2017-12-08T09:39:13.388Z,2.07
2017-12-08T09:41:40.939Z,1.50
2017-12-08T09:44:09.273Z,2.27
2017-12-08T09:46:36.913Z,1.90
2017-12-08T09:49:04.506Z,2.23
2017-12-08T09:51:44.761Z,2.10
2017-12-08T09:54:12.384Z,3.33
2017-12-08T09:56:39.950Z,3.00
2017-12-08T09:59:07.545Z,2.23
2017-12-08T10:01:36.073Z,2.93
2017-12-08T10:04:03.661Z,3.00
2017-12-08T10:06:31.754Z,3.80
2017-12-08T10:08:59.768Z,5.63
2017-12-08T10:11:28.151Z,4.47
2017-12-08T10:13:56.474Z,4.27
2017-12-08T10:16:24.118Z,4.90
2017-12-08T10:18:51.701Z,5.30
2017-12-08T10:21:19.247Z,4.27
2017-12-08T10:23:47.475Z,5.07
2017-12-08T10:26:17.335Z,4.57
2017-12-08T10:28:44.938Z,4.67
2017-12-08T10:31:12.506Z,5.50
2017-12-08T10:33:40.063Z,5.77
2017-12-08T10:36:07.637Z,5.83
2017-12-08T10:38:35.965Z,6.50
2017-12-08T10:41:03.557Z,5.20
2017-12-08T10:43:31.124Z,3.97
2017-12-08T10:45:58.677Z,5.17
2017-12-08T10:48:26.266Z,4.67
2017-12-08T10:50:54.899Z,6.20
2017-12-08T10:53:22.454Z,4.67
2017-12-08T10:55:50.017Z,4.30
2017-12-08T10:58:17.597Z,5.10
2017-12-08T11:00:45.138Z,4.87
2017-12-08T11:03:12.742Z,4.30
2017-12-08T11:05:40.300Z,4.50
2017-12-08T11:08:07.846Z,4.10
2017-12-08T11:10:35.430Z,4.10
2017-12-08T11:13:03.729Z,5.40
2017-12-08T11:15:31.390Z,3.87
2017-12-08T11:17:58.970Z,5.90
2017-12-08T11:20:26.535Z,6.10
2017-12-08T11:22:54.102Z,4.57
2017-12-08T11:25:21.657Z,5.87
2017-12-08T11:27:49.278Z,5.13
2017-12-08T11:30:17.609Z,5.00
2017-12-08T11:32:45.179Z,4.20
2017-12-08T11:35:12.780Z,5.30
2017-12-08T11:37:41.183Z,4.80
2017-12-08T11:40:08.742Z,4.70
2017-12-08T11:42:36.417Z,5.60
2017-12-08T11:45:04.007Z,4.47
2017-12-08T11:47:31.585Z,4.17
2017-12-08T11:49:59.138Z,4.50
2017-12-08T11:52:26.703Z,6.60
2017-12-08T11:54:54.291Z,6.73
2017-12-08T11:57:22.636Z,5.17
2017-12-08T11:59:50.324Z,6.27
2017-12-08T12:02:18.661Z,5.43
2017-12-08T12:04:46.237Z,6.23
2017-12-08T12:07:13.798Z,7.30
2017-12-08T12:09:41.379Z,4.10
2017-12-08T12:12:09.706Z,7.30
2017-12-08T12:14:37.278Z,6.07
2017-12-08T12:17:04.869Z,6.73
2017-12-08T12:19:32.467Z,7.60
2017-12-08T12:22:00.044Z,7.17
2017-12-08T12:24:27.634Z,6.70
2017-12-08T12:26:55.194Z,6.97
2017-12-08T12:29:22.774Z,6.50
2017-12-08T12:31:51.141Z,6.20
2017-12-08T12:34:18.997Z,6.70
2017-12-08T12:36:46.572Z,7.40
2017-12-08T12:39:14.132Z,6.03
2017-12-08T12:41:41.698Z,7.27
2017-12-08T12:44:09.294Z,7.20
2017-12-08T12:46:37.640Z,7.93
2017-12-08T12:49:05.232Z,6.70
2017-12-08T12:51:33.552Z,5.40
2017-12-08T12:54:01.123Z,7.50
2017-12-08T12:56:28.684Z,8.10
2017-12-08T12:58:56.267Z,8.00
2017-12-08T13:01:23.836Z,7.43
2017-12-08T13:03:52.235Z,8.10
2017-12-08T13:06:20.569Z,5.97
2017-12-08T13:08:49.674Z,7.00
2017-12-08T13:11:18.449Z,7.40
2017-12-08T13:13:51.273Z,7.73
2017-12-08T13:16:19.131Z,7.87
2017-12-08T13:18:46.682Z,6.90
2017-12-08T13:21:14.261Z,9.33
2017-12-08T13:23:42.599Z,7.43
2017-12-08T13:26:11.111Z,8.93
2017-12-08T13:28:38.683Z,9.00
2017-12-08T13:31:07.017Z,8.70
2017-12-08T13:33:34.598Z,7.13
2017-12-08T13:36:02.255Z,7.47
2017-12-08T13:38:29.831Z,8.50
2017-12-08T13:40:57.407Z,9.07
2017-12-08T13:43:25.759Z,7.07
2017-12-08T13:45:53.325Z,7.43
2017-12-08T13:48:20.937Z,7.43
2017-12-08T13:50:48.613Z,7.90
2017-12-08T13:53:28.150Z,8.53
2017-12-08T13:56:15.782Z,7.27
2017-12-08T13:58:43.527Z,6.17
2017-12-08T14:01:11.095Z,6.37
2017-12-08T14:03:38.715Z,6.63
2017-12-08T14:06:06.378Z,6.60
2017-12-08T14:08:33.941Z,9.13
2017-12-08T14:11:01.526Z,5.83
2017-12-08T14:13:29.826Z,8.30
2017-12-08T14:15:57.446Z,7.50
2017-12-08T14:18:25.865Z,7.50
2017-12-08T14:20:53.508Z,8.80
2017-12-08T14:23:23.328Z,8.00
2017-12-08T14:25:50.898Z,8.07
2017-12-08T14:28:18.446Z,8.60
2017-12-08T14:30:46.190Z,7.43
2017-12-08T14:33:14.557Z,10.10
2017-12-08T14:35:42.149Z,9.43
2017-12-08T14:38:10.680Z,7.60
2017-12-08T14:40:38.275Z,6.93
2017-12-08T14:43:05.856Z,8.40
2017-12-08T14:45:33.438Z,7.33
2017-12-08T14:48:01.013Z,7.00
2017-12-08T14:50:28.589Z,7.37
2017-12-08T14:52:56.180Z,6.60
2017-12-08T14:55:23.783Z,7.77
2017-12-08T14:57:51.368Z,7.47
2017-12-08T15:00:20.089Z,6.33
2017-12-08T15:02:48.784Z,6.47
2017-12-08T15:05:17.927Z,11.57
2017-12-08T15:07:45.497Z,5.90
2017-12-08T15:10:13.058Z,6.80
2017-12-08T15:12:40.614Z,9.77
2017-12-08T15:15:08.295Z,6.97
2017-12-08T15:17:35.859Z,5.80
2017-12-08T15:20:03.439Z,6.47
2017-12-08T15:22:31.034Z,6.83
2017-12-08T15:24:59.382Z,6.70
2017-12-08T15:27:28.164Z,7.97
2017-12-08T15:29:55.754Z,9.50
2017-12-08T15:32:23.335Z,12.87
2017-12-08T15:34:50.925Z,9.77
2017-12-08T15:37:18.473Z,9.53
2017-12-08T15:39:46.043Z,10.67
2017-12-08T15:42:13.609Z,10.57
2017-12-08T15:44:41.181Z,9.90
2017-12-08T15:47:08.834Z,9.50
2017-12-08T15:49:36.398Z,10.90
2017-12-08T15:52:03.980Z,10.37
2017-12-08T15:54:31.513Z,7.83
2017-12-08T15:56:59.088Z,10.90
2017-12-08T15:59:26.729Z,11.53
2017-12-08T16:01:54.345Z,9.17
2017-12-08T16:04:21.958Z,10.30
2017-12-08T16:06:49.527Z,10.27
2017-12-08T16:09:17.097Z,8.70
2017-12-08T16:11:44.674Z,9.40
2017-12-08T16:14:13.809Z,9.00
2017-12-08T16:16:41.435Z,8.60
2017-12-08T16:19:10.394Z,9.20
2017-12-08T16:21:37.942Z,7.73
2017-12-08T16:24:05.574Z,8.20
2017-12-08T16:26:33.139Z,8.30
2017-12-08T16:29:01.423Z,8.83
2017-12-08T16:31:29.002Z,9.00
2017-12-08T16:33:56.725Z,8.30
2017-12-08T16:36:24.361Z,9.70
2017-12-08T16:38:51.932Z,9.80
2017-12-08T16:41:20.340Z,9.27
2017-12-08T16:43:47.911Z,10.13
2017-12-08T16:46:16.274Z,10.90
2017-12-08T16:48:43.856Z,10.90
2017-12-08T16:51:11.461Z,11.40
2017-12-08T16:53:39.025Z,12.80
2017-12-08T16:56:06.618Z,12.43
2017-12-08T16:58:35.020Z,11.80
2017-12-08T17:01:02.623Z,9.60
2017-12-08T17:03:30.206Z,10.70
2017-12-08T17:05:58.563Z,9.27
2017-12-08T17:08:26.153Z,8.90
2017-12-08T17:10:54.511Z,9.37
2017-12-08T17:13:22.086Z,9.90
2017-12-08T17:15:50.398Z,9.00
2017-12-08T17:18:18.062Z,8.97
2017-12-08T17:20:45.718Z,7.00
2017-12-08T17:23:13.309Z,7.40
2017-12-08T17:25:40.986Z,6.23
2017-12-08T17:28:08.558Z,6.53
2017-12-08T17:30:36.151Z,4.43
2017-12-08T17:33:03.748Z,6.13
2017-12-08T17:35:31.386Z,5.90
2017-12-08T17:37:58.957Z,5.40
2017-12-08T17:40:26.559Z,7.57
2017-12-08T17:42:54.137Z,5.37
2017-12-08T17:45:22.525Z,6.10
2017-12-08T17:47:50.865Z,5.90
2017-12-08T17:50:18.528Z,5.80
2017-12-08T17:52:46.110Z,5.57
2017-12-08T17:55:13.714Z,5.23
2017-12-08T17:57:41.279Z,4.60
2017-12-08T18:00:08.838Z,4.80
2017-12-08T18:02:36.446Z,5.33
2017-12-08T18:05:04.079Z,3.60
2017-12-08T18:07:31.678Z,3.67
2017-12-08T18:09:59.231Z,4.07
2017-12-08T18:12:26.927Z,4.10
2017-12-08T18:14:54.470Z,4.70
2017-12-08T18:17:22.830Z,4.00
2017-12-08T18:19:51.324Z,5.83
2017-12-08T18:22:18.927Z,4.13
2017-12-08T18:24:46.525Z,4.53
2017-12-08T18:27:14.107Z,4.40
2017-12-08T18:29:41.694Z,4.30
2017-12-08T18:32:09.258Z,4.33
2017-12-08T18:34:36.860Z,4.90
2017-12-08T18:37:04.801Z,4.67
2017-12-08T18:39:32.402Z,4.53
2017-12-08T18:51:45.041Z,3.73
2017-12-08T18:54:12.662Z,3.37
2017-12-08T18:56:48.599Z,3.50
2017-12-08T18:59:17.804Z,3.07
2017-12-08T19:01:45.684Z,5.27
2017-12-08T19:04:16.894Z,3.90
2017-12-08T19:06:44.739Z,3.97
2017-12-08T19:09:12.400Z,3.83
2017-12-08T19:11:40.029Z,3.30
2017-12-08T19:14:07.586Z,3.50
2017-12-08T19:16:36.003Z,3.50
2017-12-08T19:19:03.594Z,4.97
2017-12-08T19:21:31.179Z,3.63
2017-12-08T19:23:58.805Z,5.13
2017-12-08T19:26:26.443Z,3.30
2017-12-08T19:28:54.023Z,4.80
2017-12-08T19:31:21.608Z,4.00
2017-12-08T19:33:49.207Z,5.20
2017-12-08T19:36:17.551Z,4.37
2017-12-08T19:38:45.138Z,4.50
2017-12-08T19:41:12.649Z,3.83
2017-12-08T19:43:40.268Z,4.00
2017-12-08T19:46:08.625Z,3.80
2017-12-08T19:48:36.261Z,2.70
2017-12-08T19:51:04.665Z,3.33
2017-12-08T19:53:32.226Z,4.40
2017-12-08T19:55:59.865Z,4.13
2017-12-08T19:58:27.430Z,4.30
2017-12-08T20:00:55.107Z,3.73
2017-12-08T20:03:22.665Z,4.50
2017-12-08T20:05:50.293Z,3.37
2017-12-08T20:08:17.933Z,4.50
2017-12-08T20:10:45.549Z,5.40
2017-12-08T20:13:13.172Z,3.57
2017-12-08T20:15:40.780Z,5.07
2017-12-08T20:18:08.355Z,5.00
2017-12-08T20:20:35.939Z,5.90
2017-12-08T20:23:13.057Z,6.03
2017-12-08T21:12:36.285Z,6.50
2017-12-08T21:15:03.903Z,7.67
2017-12-08T21:17:31.504Z,7.43
2017-12-08T21:19:59.185Z,8.30
2017-12-08T21:22:27.653Z,9.53
2017-12-08T21:24:56.042Z,6.20
2017-12-08T21:27:23.715Z,8.63
2017-12-08T21:29:51.396Z,7.00
2017-12-08T21:32:19.011Z,8.20
2017-12-08T21:34:46.637Z,6.80
2017-12-08T21:37:14.204Z,7.77
2017-12-08T21:39:41.842Z,7.23
2017-12-08T21:42:09.500Z,5.93
2017-12-08T21:44:37.934Z,4.80
2017-12-08T21:47:10.055Z,6.40
2017-12-08T21:49:43.361Z,4.50
2017-12-08T21:52:11.044Z,8.70
2017-12-08T21:54:39.145Z,9.77
2017-12-08T21:57:06.786Z,5.67
2017-12-08T21:59:35.105Z,8.37
2017-12-08T22:02:03.506Z,9.90
2017-12-08T22:04:31.087Z,9.13
2017-12-08T22:06:58.667Z,6.17
2017-12-08T22:09:31.461Z,8.23
2017-12-08T22:11:59.111Z,9.13
2017-12-08T22:14:26.699Z,8.70
2017-12-08T22:16:54.399Z,10.13
2017-12-08T22:19:22.005Z,9.17
2017-12-08T22:21:49.632Z,8.03
2017-12-08T22:24:17.287Z,7.47
2017-12-08T22:26:44.882Z,8.17
2017-12-08T22:29:12.485Z,6.77
2017-12-08T22:31:40.923Z,6.87
2017-12-08T22:34:08.546Z,6.90
2017-12-08T22:36:36.203Z,7.90
2017-12-08T22:39:04.515Z,6.50
2017-12-08T22:41:32.092Z,8.43
2017-12-08T22:43:59.760Z,8.30
2017-12-08T22:46:27.553Z,7.43
2017-12-08T22:48:55.192Z,9.00
2017-12-08T22:51:22.802Z,5.80
2017-12-08T22:53:50.455Z,10.13
2017-12-08T22:56:18.847Z,8.77
2017-12-08T22:58:46.542Z,7.27
2017-12-08T23:01:14.137Z,4.97
2017-12-08T23:03:41.686Z,7.10
2017-12-08T23:06:09.337Z,8.63
2017-12-08T23:08:36.952Z,8.27
2017-12-08T23:11:04.588Z,6.63
2017-12-08T23:13:32.977Z,9.13
2017-12-08T23:16:01.345Z,9.20
2017-12-08T23:18:28.911Z,8.50
2017-12-08T23:20:56.501Z,6.03
2017-12-08T23:23:24.081Z,7.00
2017-12-08T23:25:51.708Z,9.23
2017-12-08T23:28:20.147Z,8.77
2017-12-08T23:30:47.750Z,8.13
2017-12-08T23:33:17.215Z,5.57
2017-12-08T23:35:44.858Z,9.10
2017-12-08T23:38:13.432Z,9.20
2017-12-08T23:40:41.117Z,6.87
2017-12-08T23:43:08.962Z,8.83
2017-12-08T23:45:36.566Z,7.80
2017-12-08T23:48:04.151Z,6.67
2017-12-08T23:50:32.505Z,8.07
2017-12-08T23:53:02.795Z,8.13
2017-12-08T23:55:30.862Z,6.87
2017-12-08T23:57:58.998Z,8.23
